Yale, Canada
Current Conditions -  °F | °C
As of 8:16 AM on Wednesday 22 Oct 2014 (Local Time) from CYHE Reporting Station
Light Rain Light Rain  
Wind Chill: 52°   Ceiling: 4900
Heat Index: 52°   Visibility: 6mi
Dew Point: 50°   Wind: 6mph
Humidity: 94%   Direction: 90°E
Pressure: 29.69"   Gusts: NA
Location:  49.56°N, 121.43°W
Report Text: CYHE 221516Z AUTO 09005KT 060V150 6SM -RA BR FEW005 BKN049 OVC065 11/10 A2969 RMK PCPN 0.8MM PAST HR SLP054
Loading
Personal Weather Stations






























Interactive Weather Map
Tropical Storm Tracking
New forecast layout! Learn more

10-Day Weather Forecast

Advertisements
Track Severe Weather on mobile